Terminal Aerodrome Forecast
Issued by NWS Buffalo, NY

Home | Current Version | Previous Version | Text Only | Print | Product List | Glossary On
Versions: 1 2 3 4 5 6 7 8 9 10 11 12 13 14 15 16 17 18 19 20 21 22 23 24 25 26 27 28 29
000
FTUS41 KBUF 301900 AAD
TAFBUF
TAF AMD
KBUF 301949Z 3020/3118 27015G25KT 3/4SM -SHSN OVC008
     FM302100 26016G24KT P6SM VCSH BKN035
     FM310000 27009KT P6SM SCT035
     FM310800 24005KT P6SM BKN035
     FM311000 VRB03KT P6SM BKN035
     FM311600 35005KT P6SM BKN035=

USA.gov is the U.S. government's official web portal to all federal, state and local government web resources and services.